Terminal Aerodrome Forecast
Issued by NWS Nashville, TN

Home | Current Version | Previous Version | Text Only | Print | Product List | Glossary On
Versions: 1 2 3 4 5 6 7 8 9 10 11 12 13 14 15 16 17 18 19 20 21 22
000
FTUS44 KOHX 162300 RRA
TAFBNA
TAF
KBNA 162340Z 1700/1724 01006KT P6SM SCT030 SCT080 BKN200
     FM170600 36003KT 6SM BR SKC
     FM171000 00000KT 4SM BR SKC
     FM171400 36004KT P6SM SKC
     FM171700 34004KT P6SM SCT040 BKN200=

USA.gov is the U.S. government's official web portal to all federal, state and local government web resources and services.